Ocean View, Delaware
Current Conditions -  °F | °C
As of 4:53 PM on Monday 22 Dec 2014 (Local Time) from KOXB Reporting Station
Overcast Overcast  
Wind Chill: 41°   Ceiling: 7500
Heat Index: 45°   Visibility: 8mi
Dew Point: 43°   Wind: 8mph
Humidity: 93%   Direction: 50°NE
Pressure: 30.1"   Gusts: NA
Location:  38.55°N, 75.09°W
Report Text: KOXB 222153Z AUTO 05007KT 8SM SCT019 BKN075 OVC100 07/06 A3010 RMK AO2 SLP192 T00720061 TSNO
Loading
Personal Weather Stations






























Interactive Weather Map New forecast layout! Learn more

10-Day Weather Forecast

Advertisements
Track Severe Weather on mobile